Aviation Digital Data Service (ADDS)

Output produced by METARs form (1158 UTC 26 March 2019)
found at http://www.aviationweather.gov/metar/data/
 
KABQ 261138Z 2612/2712 VRB06KT P6SM FEW250 
     FM261800 15007KT P6SM BKN250 
     FM262100 17012G22KT P6SM BKN180 
     FM270100 13012G20KT P6SM VCSH SCT050 BKN090 
     FM270800 17007KT P6SM SCT050 BKN180
       
KABY 261120Z 2612/2712 35008KT P6SM SCT040 
     FM270100 03008KT 4SM SHRA OVC025 
     FM270700 03006KT P6SM SCT030
       
KACT 261120Z 2612/2712 36007KT P6SM SKC 
     FM262100 05006KT P6SM SCT300 
     FM270900 15006KT P6SM BKN250
       
KACV 261140Z 2612/2712 09003KT P6SM VCFG FEW005 SCT050 
     FM261900 24008KT P6SM BKN150 
     FM270300 12005KT P6SM SCT050 BKN120
       
TAF AMD KADW 261015Z 2610/2715 02012KT 9999 OVC055 QNH3011INS 
     TEMPO 2610/2612 01015G25KT 
     BECMG 2611/2612 01015G25KT 9999 FEW030 QNH3023INS 
     BECMG 2612/2613 02012KT 9999 SKC QNH3029INS 
     BECMG 2623/2624 02006KT 9999 SKC QNH3034INS TX10/2620Z TN01/2612Z
       
KAEG 261138Z 2612/2712 VRB06KT P6SM FEW250 
     FM261800 12007KT P6SM BKN250 
     FM262100 16010G18KT P6SM BKN180 
     FM270100 16010G18KT P6SM VCSH SCT050 BKN090 
     FM270800 17007KT P6SM SCT050 BKN180
       
KAEX 261122Z 2612/2712 33006KT P6SM SKC 
     FM261600 01011G18KT P6SM SKC 
     FM270100 02004KT P6SM SKC
       
KAFW 261120Z 2612/2712 36007KT P6SM SKC 
     FM261500 05007KT P6SM SKC 
     FM270000 09007KT P6SM FEW300 
     FM270900 15006KT P6SM BKN250
       
KAGC 261121Z 2612/2712 36006KT P6SM SKC
       
KAGS 261126Z 2612/2712 36006KT P6SM SCT009 
     FM261300 36006KT P6SM OVC009 
     FM261500 02010G17KT P6SM OVC012 
     FM261800 06009G16KT P6SM BKN035 
     FM270000 05004KT P6SM BKN060
       
KAHN 261120Z 2612/2712 31005KT P6SM BKN070 
     FM261400 06010KT P6SM SCT030 BKN050 
     FM262200 06007KT P6SM BKN050 
     FM270300 07006KT P6SM SCT050
       
KAIA 261129Z 2612/2712 18005KT 6SM BR VCFG SCT002 
     TEMPO 2612/2615 2SM BR VV002 
     FM261500 20010KT P6SM BKN200 
     FM261800 20015G22KT P6SM BKN200 
     FM270000 22007KT P6SM BKN200
       
KALB 261122Z 2612/2712 33005KT P6SM SKC 
     FM261400 32010G17KT P6SM SKC 
     FM270000 33005KT P6SM SKC
       
KALS 261120Z 2612/2712 VRB03KT P6SM SKC 
     FM261900 21012KT P6SM SCT250 
     FM270200 21007KT P6SM BKN150
       
KALW 261132Z 2612/2712 19006KT P6SM OVC060 
     FM261500 23008KT P6SM BKN100 
     FM262000 25007KT P6SM SCT070 
     FM270600 10005KT P6SM OVC100
       
KAMA 261120Z 2612/2712 14014KT 1SM BR VV002 
     TEMPO 2612/2616 3SM BR OVC003 
     FM261600 18015KT P6SM OVC020 
     FM261800 18020G29KT P6SM SCT040 
     FM270000 17015KT P6SM BKN250
       
KANB 261120Z 2612/2712 35007KT P6SM OVC035 
     TEMPO 2612/2615 BKN025 
     FM261700 01009G16KT P6SM BKN040 
     FM270100 34005KT P6SM SKC
       
KAND 261125Z 2612/2712 03006KT P6SM BKN050 
     TEMPO 2612/2614 4SM BR 
     FM261600 06011KT P6SM BKN045 
     FM262200 06007KT P6SM SCT060
       
KAOO 261121Z 2612/2712 02008KT P6SM SKC
       
KAPA 261120Z 2612/2712 18007KT P6SM BKN250 
     FM261800 14006KT P6SM BKN250 
     FM262100 08006KT P6SM BKN250 
     FM270100 VRB05KT P6SM FEW120 BKN250 
     FM270600 18006KT P6SM BKN120
       
KAPF 261154Z 2612/2712 02003KT P6SM SKC 
     FM261400 31006KT P6SM FEW040 
     FM261700 29010KT P6SM SCT040 
     FM270000 31005KT P6SM FEW040
       
KAPN 261120Z 2612/2712 VRB04KT P6SM SKC 
     FM270500 20005KT P6SM SCT150 
     FM271000 22007KT P6SM FEW150
       
KARA 261122Z 2612/2712 01010KT P6SM SKC 
     FM261800 36012G21KT P6SM SKC 
     FM270100 36004KT P6SM SKC
       
KASD 261121Z 2612/2712 36006KT P6SM SKC 
     FM261700 35008KT P6SM SCT035 
     FM270100 VRB04KT P6SM SKC
       
KASE 261135Z 2612/2712 21006KT P6SM FEW250 
     FM261700 34005KT P6SM SCT250 
     FM262000 23008KT P6SM SCT250 
     FM270200 18006KT P6SM FEW200
       
KASN 261120Z 2612/2712 33008KT P6SM OVC025 
     FM261600 01009G16KT P6SM BKN035 
     FM262300 34005KT P6SM SCT040
       
KAST 261134Z 2612/2712 16005KT P6SM SCT030 OVC040 
     FM261300 15005KT P6SM SCT020 BKN050 
     FM261800 11006KT P6SM SCT050 
     FM262300 30005KT P6SM SCT250 
     FM270600 07005KT P6SM SCT250
       
KATW 261120Z 2612/2712 VRB03KT P6SM SKC 
     FM261600 19008KT P6SM SCT250 
     FM271000 20008KT P6SM SCT080 WS013/22035KT
       
KATL 261141Z 2612/2718 34012G18KT P6SM BKN015 OVC035 
     FM261500 02010G18KT P6SM VCSH SCT015 OVC030 
     TEMPO 2619/2623 -SHRA 
     FM270200 05008KT P6SM SCT025 BKN040 
     FM270500 07008KT P6SM SCT050 
     FM271400 08012G18KT P6SM SKC
       
KATY 261125Z 2612/2712 15005KT P6SM FEW050 
     FM261400 16008KT P6SM BKN060 
     FM261700 18010KT P6SM BKN023 
     FM262100 17010KT P6SM BKN080 
     FM270300 17012KT 2SM BR SCT027 WS020/21040KT 
     FM270600 17014G20KT 2SM BR SCT027 WS020/22045KT 
     FM271000 18014KT 6SM BR SCT050 WS020/23045KT
       
KAUG 261120Z 2612/2712 31011KT P6SM SKC 
     FM270000 VRB03KT P6SM SKC
       
KAUS 261134Z 2612/2718 04007KT P6SM SCT250 
     FM270000 07008KT P6SM SKC
       
KAUW 261120Z 2612/2712 VRB03KT P6SM SKC 
     FM261600 21008KT P6SM SCT250 
     FM270500 20006KT P6SM SCT250 WS016/22035KT 
     FM270800 19007KT P6SM BKN060 WS016/22035KT
       
KAVL 261125Z 2612/2712 35011KT P6SM OVC015 
     FM261500 36012G20KT P6SM BKN025 
     FM270100 03004KT P6SM BKN045 
     FM270400 07003KT P6SM SCT060
       
KAVP 261120Z 2612/2712 02007KT P6SM SKC 
     FM261600 35009G16KT P6SM SKC 
     FM270200 VRB04KT P6SM SKC
       
KAXN 261120Z 2612/2712 VRB04KT 6SM BR BKN200 
     FM261300 17005KT P6SM BKN200 
     FM262200 17010KT P6SM BKN035 
     FM270200 17011KT P6SM BKN025
       
KAZO 261125Z 2612/2712 VRB04KT P6SM SKC